Time;durP1;ratioP1;P1;durP2;ratioP2;P2;SDS_P1;SDS_P2;PMS_P1;PMS_P2;Temp;Humidity;BMP_temperature;BMP_pressure;BME280_temperature;BME280_humidity;BME280_pressure;Samples;Min_cycle;Max_cycle;Signal;HPM_P1;HPM_P2
2023/03/13 00:00:09;;;;;;;1.30;1.20;;;;;;;2.13;55.64;96661.84;5095442;28;20520;-66
2023/03/13 00:02:37;;;;;;;1.80;1.45;;;;;;;2.02;55.90;96656.72;5095384;28;20048;-66
2023/03/13 00:05:04;;;;;;;1.85;1.52;;;;;;;1.93;55.43;96661.03;5095343;28;20044;-64
2023/03/13 00:07:33;;;;;;;1.90;1.70;;;;;;;1.92;55.93;96667.91;5095275;28;20509;-66
2023/03/13 00:10:01;;;;;;;2.58;1.40;;;;;;;1.92;55.67;96664.50;5095269;28;20482;-68
2023/03/13 00:12:28;;;;;;;1.85;1.40;;;;;;;1.82;55.36;96661.94;5095444;28;20483;-67
2023/03/13 00:14:55;;;;;;;1.58;1.48;;;;;;;1.70;55.77;96665.38;5095204;28;20051;-65
2023/03/13 00:17:22;;;;;;;3.85;1.38;;;;;;;1.62;55.91;96665.38;5095035;28;20047;-65
2023/03/13 00:19:51;;;;;;;1.80;1.40;;;;;;;1.57;55.73;96653.34;5094081;28;20142;-67
2023/03/13 00:22:20;;;;;;;2.05;1.40;;;;;;;1.50;55.81;96658.50;5095087;28;20559;-65
2023/03/13 00:24:49;;;;;;;1.95;1.75;;;;;;;1.46;55.83;96656.78;5095022;28;20044;-67
2023/03/13 00:27:16;;;;;;;1.40;1.30;;;;;;;1.40;56.24;96656.78;5094881;28;20516;-69
2023/03/13 00:29:43;;;;;;;1.98;1.45;;;;;;;1.38;56.27;96655.91;5094887;28;20048;-65
2023/03/13 00:32:10;;;;;;;2.20;1.52;;;;;;;1.34;55.97;96659.34;5094763;28;20048;-68
2023/03/13 00:34:37;;;;;;;2.40;1.38;;;;;;;1.32;56.19;96663.66;5094770;28;20060;-66
2023/03/13 00:37:05;;;;;;;2.03;1.50;;;;;;;1.33;56.97;96666.25;5094714;28;20559;-65
2023/03/13 00:39:32;;;;;;;1.42;1.30;;;;;;;1.33;57.13;96670.53;5094749;28;20070;-64
2023/03/13 00:42:02;;;;;;;1.42;1.33;;;;;;;1.32;57.00;96661.94;5094795;28;20052;-65
2023/03/13 00:44:29;;;;;;;;;;;;;;;1.31;57.13;96660.22;5095103;28;20147;-64
2023/03/13 00:46:56;;;;;;;2.70;1.50;;;;;;;1.24;57.34;96661.91;5094412;28;19978;-66
2023/03/13 00:49:24;;;;;;;1.95;1.75;;;;;;;1.17;57.02;96660.19;5094364;28;20044;-69
2023/03/13 00:51:51;;;;;;;2.38;1.60;;;;;;;1.08;57.37;96665.34;5094456;28;20080;-65
2023/03/13 00:54:18;;;;;;;2.10;1.50;;;;;;;0.91;57.66;96663.59;5094454;28;20130;-64
2023/03/13 00:56:45;;;;;;;1.60;1.50;;;;;;;0.84;57.83;96665.28;5094352;28;20048;-68
2023/03/13 00:59:14;;;;;;;2.65;1.55;;;;;;;0.86;58.08;96662.72;5094369;28;20134;-65
2023/03/13 01:01:42;;;;;;;1.58;1.42;;;;;;;0.82;57.93;96659.28;5094405;28;20051;-67
2023/03/13 01:04:12;;;;;;;1.92;1.50;;;;;;;0.77;57.49;96665.25;5094269;28;20059;-63
2023/03/13 01:06:42;;;;;;;2.83;1.70;;;;;;;0.76;58.27;96661.84;5094261;28;20048;-64
2023/03/13 01:09:10;;;;;;;1.40;1.20;;;;;;;0.79;58.52;96664.44;5094231;28;20048;-66
2023/03/13 01:11:40;;;;;;;1.70;1.30;;;;;;;0.81;58.12;96661.84;5094209;28;20087;-65
2023/03/13 01:14:12;;;;;;;1.70;1.50;;;;;;;0.72;58.32;96668.69;5094099;28;20048;-63
2023/03/13 01:16:41;;;;;;;4.90;1.38;;;;;;;0.76;58.73;96667.00;5093877;28;20044;-65
2023/03/13 01:19:10;;;;;;;2.17;1.50;;;;;;;0.71;58.95;96666.97;5093947;28;20416;-66
2023/03/13 01:21:38;;;;;;;1.65;1.42;;;;;;;0.66;59.01;96671.22;5094091;28;20048;-66
2023/03/13 01:24:06;;;;;;;1.88;1.52;;;;;;;0.55;58.97;96665.19;5093838;28;20048;-68
2023/03/13 01:26:33;;;;;;;1.65;1.55;;;;;;;0.48;59.03;96672.06;5093853;28;20132;-65
2023/03/13 01:29:00;;;;;;;23.40;2.08;;;;;;;0.40;59.25;96672.00;5093808;28;20486;-65
2023/03/13 01:31:30;;;;;;;12.55;2.03;;;;;;;0.40;59.83;96669.44;5093705;28;20073;-64
2023/03/13 01:34:01;;;;;;;4.50;1.80;;;;;;;0.41;60.11;96675.41;5093699;28;20047;-66
2023/03/13 01:36:28;;;;;;;4.45;1.92;;;;;;;0.39;60.14;96678.00;5093824;28;20048;-67
2023/03/13 01:38:57;;;;;;;2.10;1.48;;;;;;;0.39;60.21;96677.16;5093668;28;20624;-66
2023/03/13 01:41:25;;;;;;;2.20;1.80;;;;;;;0.40;60.11;96674.59;5093660;28;20480;-64
2023/03/13 01:43:54;;;;;;;2.85;2.00;;;;;;;0.38;59.66;96686.56;5093518;28;20106;-66
2023/03/13 01:46:23;;;;;;;2.15;1.95;;;;;;;0.36;60.13;96689.13;5093440;28;20048;-65
2023/03/13 01:48:55;;;;;;;2.17;1.93;;;;;;;0.33;60.19;96696.84;5093143;28;20052;-64
2023/03/13 01:51:29;;;;;;;2.90;1.92;;;;;;;0.36;60.29;96703.75;5093364;28;20057;-67
2023/03/13 01:54:01;;;;;;;4.60;2.05;;;;;;;0.37;60.21;96708.88;5093328;28;20043;-63
2023/03/13 01:56:34;;;;;;;2.55;1.88;;;;;;;0.36;60.01;96711.47;5093427;28;20055;-65
2023/03/13 01:59:02;;;;;;;3.13;2.28;;;;;;;0.29;60.25;96712.25;5093442;28;20048;-63
2023/03/13 02:01:30;;;;;;;2.20;2.00;;;;;;;0.22;59.80;96714.81;5093256;28;20044;-68
2023/03/13 02:03:58;;;;;;;2.38;1.85;;;;;;;0.06;60.07;96725.88;5093221;28;20067;-64
2023/03/13 02:06:30;;;;;;;3.65;2.50;;;;;;;0.05;60.78;96724.13;5093220;28;20063;-62
2023/03/13 02:09:03;;;;;;;2.55;2.25;;;;;;;-0.05;60.08;96736.94;5093230;28;20063;-63
2023/03/13 02:11:42;;;;;;;67.68;39.95;;;;;;;-0.19;60.47;96741.97;5093090;28;20043;-65
2023/03/13 02:14:10;;;;;;;9.57;6.60;;;;;;;-0.33;60.67;96736.69;5093282;28;20049;-66
2023/03/13 02:16:38;;;;;;;4.10;3.00;;;;;;;-0.39;60.47;96737.53;5093152;28;20494;-66
2023/03/13 02:19:17;;;;;;;3.97;2.42;;;;;;;-0.46;60.75;96735.75;5093063;28;20143;-65
2023/03/13 02:21:55;;;;;;;4.88;3.58;;;;;;;-0.47;60.71;96740.88;5093034;28;20050;-64
2023/03/13 02:24:33;;;;;;;5.57;3.58;;;;;;;-0.49;61.47;96748.56;5093065;28;20055;-63
2023/03/13 02:27:01;;;;;;;3.45;2.30;;;;;;;-0.45;61.67;96746.91;5092935;28;20097;-65
2023/03/13 02:29:29;;;;;;;2.53;2.22;;;;;;;-0.57;61.49;96747.66;5092981;28;20104;-67
2023/03/13 02:31:56;;;;;;;2.80;1.77;;;;;;;-0.65;61.16;96755.28;5093081;28;20131;-65
2023/03/13 02:34:30;;;;;;;4.00;3.10;;;;;;;-0.68;61.26;96753.56;5092922;28;20505;-68
2023/03/13 02:36:58;;;;;;;2.92;2.42;;;;;;;-0.69;61.09;96754.38;5092969;28;20494;-64
2023/03/13 02:39:27;;;;;;;3.05;2.08;;;;;;;-0.71;61.41;96765.50;5092905;28;20046;-67
2023/03/13 02:41:56;;;;;;;5.70;2.60;;;;;;;-0.83;61.90;96759.38;5094226;28;20070;-64
2023/03/13 02:44:24;;;;;;;3.63;2.28;;;;;;;-0.89;62.14;96761.88;5096837;28;20051;-64
2023/03/13 02:46:52;;;;;;;3.35;2.38;;;;;;;-0.95;62.44;96767.81;5096842;28;20044;-65
2023/03/13 02:49:24;;;;;;;3.08;2.05;;;;;;;-1.03;62.86;96761.72;5096613;28;20048;-64
2023/03/13 02:51:53;;;;;;;4.03;2.13;;;;;;;-1.09;63.19;96769.38;5097035;28;20084;-66
2023/03/13 02:54:22;;;;;;;2.85;2.40;;;;;;;-1.22;63.35;96776.03;5096955;28;20093;-66
2023/03/13 02:56:54;;;;;;;1.63;1.53;;;;;;;-1.28;63.72;96775.16;5096775;28;20127;-67
2023/03/13 02:59:22;;;;;;;3.13;2.38;;;;;;;-1.42;64.28;96776.66;5096653;28;20044;-65
2023/03/13 03:01:51;;;;;;;2.58;2.30;;;;;;;-1.47;64.37;96775.75;5096640;28;20044;-64
2023/03/13 03:04:20;;;;;;;2.90;2.47;;;;;;;-1.46;64.47;96780.03;5096652;28;20040;-65
2023/03/13 03:06:47;;;;;;;7.63;2.22;;;;;;;-1.40;64.68;96785.25;5096538;28;20135;-68
2023/03/13 03:09:14;;;;;;;5.63;2.75;;;;;;;-1.36;64.49;96784.44;5096695;28;20139;-67
2023/03/13 03:11:42;;;;;;;3.15;1.80;;;;;;;-1.45;64.43;96792.88;5096640;28;20124;-64
2023/03/13 03:14:10;;;;;;;3.25;2.28;;;;;;;-1.41;64.85;96797.19;5096366;28;20060;-65
2023/03/13 03:16:39;;;;;;;3.53;2.25;;;;;;;-1.50;64.47;96802.22;5096389;28;20122;-66
2023/03/13 03:19:08;;;;;;;2.85;2.53;;;;;;;-1.42;65.12;96797.19;5096237;28;20490;-65
2023/03/13 03:21:37;;;;;;;3.70;2.40;;;;;;;-1.40;64.82;96798.06;5096398;28;20047;-64
2023/03/13 03:24:05;;;;;;;3.80;2.30;;;;;;;-1.44;64.60;96806.59;5096149;28;20058;-68
2023/03/13 03:26:32;;;;;;;2.28;2.08;;;;;;;-1.51;64.78;96807.34;5096110;28;20130;-68
2023/03/13 03:28:59;;;;;;;1.95;1.75;;;;;;;-1.51;64.62;96810.75;5096035;28;20519;-66
2023/03/13 03:31:26;;;;;;;3.72;2.28;;;;;;;-1.53;64.35;96813.28;5096126;28;20093;-66
2023/03/13 03:33:53;;;;;;;3.35;1.98;;;;;;;-1.55;65.14;96820.13;5095975;28;20507;-65
2023/03/13 03:36:23;;;;;;;3.60;2.42;;;;;;;-1.58;65.21;96824.34;5096121;28;20076;-66
2023/03/13 03:38:50;;;;;;;2.07;1.80;;;;;;;-1.59;64.77;96830.31;5096095;28;20050;-65
2023/03/13 03:41:19;;;;;;;2.55;2.20;;;;;;;-1.51;65.04;96841.53;5095922;28;20044;-67
2023/03/13 03:43:47;;;;;;;3.53;2.15;;;;;;;-1.43;64.93;96841.66;5095791;28;20040;-67
2023/03/13 03:46:14;;;;;;;4.85;2.17;;;;;;;-1.48;65.02;96840.75;5095807;28;20076;-65
2023/03/13 03:48:42;;;;;;;3.00;2.25;;;;;;;-1.52;64.86;96837.25;5095430;28;20058;-64
2023/03/13 03:51:09;;;;;;;2.20;2.00;;;;;;;-1.65;65.79;96838.78;5095656;28;20429;-63
2023/03/13 03:53:40;;;;;;;2.95;2.25;;;;;;;-1.70;66.06;96837.84;5094301;28;20099;-64
2023/03/13 03:56:08;;;;;;;2.80;2.20;;;;;;;-1.75;66.41;96837.78;5095541;28;20047;-63
2023/03/13 03:58:35;;;;;;;3.22;2.15;;;;;;;-1.74;66.69;96838.66;5095564;28;20048;-66
2023/03/13 04:01:02;;;;;;;2.17;1.98;;;;;;;-1.76;66.83;96848.00;5095501;28;20078;-63
2023/03/13 04:03:29;;;;;;;8.38;2.65;;;;;;;-1.85;66.95;96849.59;5095550;28;20454;-66
2023/03/13 04:05:56;;;;;;;3.20;2.33;;;;;;;-1.86;66.96;96850.44;5095461;28;20048;-65
2023/03/13 04:08:24;;;;;;;3.05;2.40;;;;;;;-1.94;67.20;96847.75;5095628;28;20101;-66
2023/03/13 04:10:52;;;;;;;2.55;2.20;;;;;;;-1.95;67.38;96846.03;5095582;28;20091;-65
2023/03/13 04:13:20;;;;;;;2.95;1.98;;;;;;;-1.87;67.14;96858.13;5095330;28;20089;-68
2023/03/13 04:15:50;;;;;;;4.05;2.90;;;;;;;-1.83;67.10;96855.63;5095206;28;20044;-65
2023/03/13 04:18:17;;;;;;;2.30;2.10;;;;;;;-1.74;66.82;96859.16;5095171;28;20047;-67
2023/03/13 04:20:45;;;;;;;4.53;2.60;;;;;;;-1.66;66.61;96860.13;5095140;28;20055;-65
2023/03/13 04:23:12;;;;;;;3.28;2.60;;;;;;;-1.73;66.32;96869.47;5095136;28;20135;-67
2023/03/13 04:25:39;;;;;;;3.50;2.30;;;;;;;-1.75;66.28;96870.28;5094990;28;20486;-64
2023/03/13 04:28:09;;;;;;;2.90;2.63;;;;;;;-1.68;66.33;96882.38;5095094;28;20482;-66
2023/03/13 04:30:36;;;;;;;2.90;2.60;;;;;;;-1.72;66.22;96881.44;5094917;28;20093;-66
2023/03/13 04:33:04;;;;;;;4.68;3.28;;;;;;;-1.72;66.15;96886.56;5094949;28;20067;-67
2023/03/13 04:35:32;;;;;;;3.95;2.83;;;;;;;-1.84;66.71;96889.78;5094846;28;20044;-66
2023/03/13 04:38:00;;;;;;;3.17;2.83;;;;;;;-1.83;66.75;96886.41;5094788;28;20048;-62
2023/03/13 04:40:27;;;;;;;3.00;2.50;;;;;;;-1.78;66.47;96889.03;5094822;28;20490;-67
2023/03/13 04:42:54;;;;;;;3.42;2.70;;;;;;;-1.76;66.69;96891.63;5094759;28;20048;-66
2023/03/13 04:45:23;;;;;;;2.95;2.65;;;;;;;-1.78;66.97;96892.47;5094641;28;20071;-65
2023/03/13 04:47:50;;;;;;;2.80;2.47;;;;;;;-1.74;67.03;96885.69;5094480;28;20432;-64
2023/03/13 04:50:17;;;;;;;4.10;3.28;;;;;;;-1.67;66.67;96899.47;5094223;28;20051;-64
2023/03/13 04:52:44;;;;;;;3.75;3.08;;;;;;;-1.60;66.55;96906.44;5094576;28;20090;-67
2023/03/13 04:55:11;;;;;;;3.00;2.42;;;;;;;-1.82;67.00;96900.09;5094444;28;20106;-64
2023/03/13 04:57:38;;;;;;;3.42;2.67;;;;;;;-1.76;68.04;96907.00;5094417;28;20052;-64
2023/03/13 05:00:09;;;;;;;3.95;2.50;;;;;;;-1.70;67.20;96919.94;5094369;28;20481;-65
2023/03/13 05:02:37;;;;;;;2.70;2.33;;;;;;;-1.64;67.41;96922.63;5094349;28;20101;-66
2023/03/13 05:05:05;;;;;;;2.78;2.25;;;;;;;-1.60;67.23;96924.38;5094038;28;20054;-66
2023/03/13 05:07:33;;;;;;;2.88;2.10;;;;;;;-1.51;67.00;96921.09;5094148;28;20052;-69
2023/03/13 05:10:01;;;;;;;4.15;2.90;;;;;;;-1.46;67.07;96923.75;5094316;28;20044;-65
2023/03/13 05:12:28;;;;;;;4.80;3.08;;;;;;;-1.38;66.73;96926.44;5094297;28;20048;-63
2023/03/13 05:14:56;;;;;;;3.63;2.80;;;;;;;-1.31;66.34;96923.13;5094091;28;20040;-65
2023/03/13 05:17:23;;;;;;;4.43;3.00;;;;;;;-1.29;66.18;96918.88;5094061;28;20083;-66
2023/03/13 05:19:52;;;;;;;5.20;3.33;;;;;;;-0.96;66.88;96933.03;5093995;28;20411;-64
2023/03/13 05:22:21;;;;;;;4.18;1.92;;;;;;;0.23;64.83;96936.97;5093976;28;20121;-64
2023/03/13 05:24:49;;;;;;;1.85;1.65;;;;;;;1.93;59.66;96942.31;5093818;28;20134;-66
2023/03/13 05:27:16;;;;;;;2.50;1.73;;;;;;;3.51;54.17;96936.22;5093936;28;20044;-65
2023/03/13 05:29:43;;;;;;;2.15;1.90;;;;;;;4.80;50.04;96942.38;5093942;28;20131;-65
2023/03/13 05:32:11;;;;;;;4.10;2.80;;;;;;;6.18;46.99;96931.34;5093648;28;20063;-66
2023/03/13 05:34:38;;;;;;;2.47;2.10;;;;;;;7.58;43.80;96933.34;5093589;28;20051;-66
2023/03/13 05:37:08;;;;;;;4.07;2.05;;;;;;;8.47;40.90;96935.84;5093628;28;20131;-64
2023/03/13 05:39:35;;;;;;;2.60;1.90;;;;;;;9.46;39.29;96934.28;5093690;28;20422;-66
2023/03/13 05:42:02;;;;;;;3.53;2.03;;;;;;;10.47;38.19;96936.63;5093622;28;20048;-61
2023/03/13 05:44:29;;;;;;;1.83;1.70;;;;;;;11.41;36.52;96938.78;5093534;28;20079;-63
2023/03/13 05:46:56;;;;;;;3.58;1.95;;;;;;;12.34;35.13;96931.13;5093565;28;20051;-63
2023/03/13 05:49:23;;;;;;;3.88;2.03;;;;;;;13.03;32.70;96929.22;5092984;28;20437;-64
2023/03/13 05:51:50;;;;;;;2.05;1.83;;;;;;;13.68;32.27;96935.28;5093367;28;20052;-64
2023/03/13 05:54:19;;;;;;;3.20;1.92;;;;;;;14.45;30.84;96940.59;5093463;28;20044;-64
2023/03/13 05:56:51;;;;;;;2.97;1.60;;;;;;;14.95;30.20;96936.47;5093585;28;20075;-63
2023/03/13 05:59:20;;;;;;;3.10;1.95;;;;;;;15.51;29.68;96935.47;5093275;28;20315;-62
2023/03/13 06:01:47;;;;;;;2.22;1.92;;;;;;;16.08;28.72;96941.34;5093330;28;20109;-62
2023/03/13 06:04:14;;;;;;;2.70;2.10;;;;;;;16.50;27.64;96939.91;5093279;28;20493;-63
2023/03/13 06:06:42;;;;;;;4.45;2.78;;;;;;;16.95;26.94;96949.75;5093248;28;20507;-62
2023/03/13 06:09:10;;;;;;;2.53;1.95;;;;;;;17.33;26.41;96953.75;5093185;28;20056;-62
2023/03/13 06:11:39;;;;;;;2.10;1.90;;;;;;;17.85;25.79;96953.38;5093253;28;20044;-65
2023/03/13 06:14:06;;;;;;;1.90;1.70;;;;;;;18.15;25.00;96961.25;5093201;28;20070;-64
2023/03/13 06:16:34;;;;;;;4.63;1.92;;;;;;;18.61;25.35;96953.13;5092145;28;20375;-62
2023/03/13 06:19:02;;;;;;;2.83;2.08;;;;;;;19.14;24.97;96955.06;5093061;28;20048;-63
2023/03/13 06:21:29;;;;;;;2.50;2.28;;;;;;;19.82;24.50;96962.91;5093066;28;20051;-62
2023/03/13 06:23:56;;;;;;;3.97;2.30;;;;;;;20.14;24.32;96959.81;5093084;28;20489;-62
2023/03/13 06:26:24;;;;;;;2.45;2.20;;;;;;;20.47;23.88;96957.56;5093060;28;20056;-63
2023/03/13 06:28:53;;;;;;;2.55;2.17;;;;;;;20.77;23.46;96958.09;5092970;28;20067;-63
2023/03/13 06:31:21;;;;;;;4.35;2.53;;;;;;;21.00;22.85;96964.38;5093017;28;20559;-64
2023/03/13 06:33:48;;;;;;;4.47;2.58;;;;;;;20.84;23.59;96973.44;5092999;28;20494;-64
2023/03/13 06:36:15;;;;;;;2.83;1.95;;;;;;;21.30;22.50;96963.06;5092803;28;20067;-64
2023/03/13 06:38:43;;;;;;;3.47;2.65;;;;;;;21.71;21.74;96970.69;5092941;28;20051;-64
2023/03/13 06:41:10;;;;;;;2.80;2.47;;;;;;;21.57;21.65;96971.72;5092903;28;20044;-62
2023/03/13 06:43:39;;;;;;;4.35;2.55;;;;;;;22.30;20.48;96974.13;5092936;28;20048;-63
2023/03/13 06:46:08;;;;;;;4.97;2.53;;;;;;;22.31;19.90;96973.16;5092799;28;20048;-62
2023/03/13 06:48:35;;;;;;;2.70;2.30;;;;;;;21.61;21.19;96969.69;5092546;28;20524;-62
2023/03/13 06:51:02;;;;;;;4.97;2.47;;;;;;;21.14;19.76;96970.50;5092852;28;20525;-63
2023/03/13 06:53:29;;;;;;;2.83;2.60;;;;;;;20.14;21.54;96972.25;5092863;28;20375;-63
2023/03/13 06:56:00;;;;;;;2.40;2.20;;;;;;;18.42;21.28;96973.69;5092827;28;20134;-63
2023/03/13 06:58:27;;;;;;;2.50;2.30;;;;;;;17.94;22.76;96972.19;5092855;28;20052;-64
2023/03/13 07:00:55;;;;;;;2.80;2.60;;;;;;;17.23;24.21;96966.69;5092847;28;20048;-64
2023/03/13 07:03:24;;;;;;;3.08;2.33;;;;;;;16.72;23.76;96967.75;5092857;28;20048;-63
2023/03/13 07:05:56;;;;;;;2.53;2.30;;;;;;;16.07;24.42;96972.13;5092695;28;20055;-63
2023/03/13 07:08:24;;;;;;;4.43;2.50;;;;;;;15.23;25.23;96974.59;5092603;28;20080;-63
2023/03/13 07:10:51;;;;;;;2.80;2.08;;;;;;;14.56;25.89;96975.16;5092650;28;20060;-63
2023/03/13 07:13:20;;;;;;;3.63;2.72;;;;;;;13.87;26.21;96975.63;5092694;28;20123;-63
2023/03/13 07:15:48;;;;;;;2.92;2.33;;;;;;;13.51;27.32;96969.28;5092545;28;20048;-64
2023/03/13 07:18:15;;;;;;;2.17;2.00;;;;;;;12.85;27.33;96973.72;5092643;28;20044;-64
2023/03/13 07:20:44;;;;;;;3.08;2.28;;;;;;;12.43;28.44;96964.84;5092653;28;20113;-64
2023/03/13 07:23:11;;;;;;;2.42;2.20;;;;;;;12.57;29.24;96966.06;5092716;28;20143;-63
2023/03/13 07:25:38;;;;;;;2.78;2.10;;;;;;;12.99;27.53;96967.03;5092474;28;20076;-62
2023/03/13 07:28:05;;;;;;;3.97;2.53;;;;;;;13.18;27.12;96967.13;5093814;28;20055;-64
2023/03/13 07:30:32;;;;;;;3.13;2.30;;;;;;;12.98;28.61;96963.56;5096122;28;20129;-64
2023/03/13 07:32:59;;;;;;;3.25;1.90;;;;;;;12.48;26.13;96965.53;5096132;28;20133;-62
2023/03/13 07:35:26;;;;;;;2.72;2.22;;;;;;;12.36;27.84;96968.63;5096040;28;20395;-64
2023/03/13 07:37:55;;;;;;;3.10;2.35;;;;;;;12.42;27.73;96971.00;5095995;28;20047;-64
2023/03/13 07:40:22;;;;;;;5.32;2.30;;;;;;;12.32;28.83;96967.91;5095988;28;20051;-65
2023/03/13 07:42:49;;;;;;;2.60;2.10;;;;;;;12.61;28.18;96955.41;5095799;28;20083;-64
2023/03/13 07:45:16;;;;;;;2.00;1.80;;;;;;;12.76;27.53;96956.56;5095945;28;20124;-63
2023/03/13 07:47:43;;;;;;;2.78;2.08;;;;;;;12.99;26.61;96954.78;5095867;28;20470;-65
2023/03/13 07:50:11;;;;;;;2.40;1.98;;;;;;;12.98;24.78;96960.09;5095454;28;20586;-64
2023/03/13 07:52:39;;;;;;;5.25;1.90;;;;;;;12.77;25.78;96962.66;5095807;28;20524;-65
2023/03/13 07:55:09;;;;;;;2.53;2.20;;;;;;;13.10;26.93;96966.59;5095569;28;20050;-65
2023/03/13 07:57:36;;;;;;;2.03;1.83;;;;;;;13.11;24.65;96971.78;5095725;28;20069;-65
2023/03/13 08:00:05;;;;;;;2.45;1.80;;;;;;;12.68;25.61;96968.28;5095675;28;20060;-65
2023/03/13 08:02:34;;;;;;;2.85;2.00;;;;;;;12.65;25.81;96964.03;5095526;28;20056;-66
2023/03/13 08:05:01;;;;;;;2.53;1.90;;;;;;;12.42;25.73;96962.28;5095435;28;20510;-65
2023/03/13 08:07:28;;;;;;;2.97;1.73;;;;;;;12.37;26.53;96960.69;5095367;28;20406;-64
2023/03/13 08:09:55;;;;;;;2.75;2.50;;;;;;;12.89;28.32;96958.69;5095305;28;20083;-66
2023/03/13 08:12:23;;;;;;;2.90;2.00;;;;;;;13.09;25.38;96971.00;5095330;28;20094;-66
2023/03/13 08:14:50;;;;;;;2.22;1.85;;;;;;;12.72;25.71;96965.47;5095392;28;20051;-64
2023/03/13 08:17:18;;;;;;;2.47;1.80;;;;;;;12.77;25.19;96960.88;5095298;28;20424;-63
2023/03/13 08:19:45;;;;;;;3.00;1.88;;;;;;;12.75;26.59;96965.34;5095186;28;20432;-66
2023/03/13 08:22:12;;;;;;;4.05;2.47;;;;;;;12.44;27.30;96957.84;5095107;28;20086;-64
2023/03/13 08:24:39;;;;;;;3.28;2.15;;;;;;;11.92;27.94;96964.13;5095153;28;20473;-64
2023/03/13 08:27:06;;;;;;;3.35;2.55;;;;;;;11.88;27.45;96960.72;5095134;28;20075;-64
2023/03/13 08:29:35;;;;;;;8.35;1.50;;;;;;;11.79;28.11;96954.06;5094913;28;20048;-62
2023/03/13 08:32:02;;;;;;;1.63;1.38;;;;;;;11.95;26.89;96961.38;5094989;28;20040;-63
2023/03/13 08:34:29;;;;;;;2.00;1.55;;;;;;;12.08;28.18;96957.44;5094967;28;20044;-64
2023/03/13 08:36:57;;;;;;;2.95;2.53;;;;;;;11.73;26.98;96964.75;5094820;28;20044;-63
2023/03/13 08:39:24;;;;;;;5.15;2.35;;;;;;;11.62;28.40;96947.66;5093985;28;20044;-62
2023/03/13 08:41:51;;;;;;;3.28;2.40;;;;;;;11.46;27.30;96951.72;5094793;28;20052;-65
2023/03/13 08:44:20;;;;;;;2.00;1.85;;;;;;;11.51;25.88;96955.06;5094837;28;20102;-64
2023/03/13 08:46:49;;;;;;;2.33;1.85;;;;;;;11.43;26.97;96950.09;5094612;28;20051;-62
2023/03/13 08:49:16;;;;;;;3.83;2.17;;;;;;;10.99;27.74;96951.53;5094296;28;20093;-65
2023/03/13 08:51:43;;;;;;;2.33;1.77;;;;;;;10.94;27.23;96942.13;5094728;28;20537;-64
2023/03/13 08:54:11;;;;;;;2.03;1.67;;;;;;;11.36;26.92;96952.06;5094761;28;20052;-63
2023/03/13 08:56:39;;;;;;;2.70;1.85;;;;;;;11.43;26.78;96946.59;5094603;28;20044;-62
2023/03/13 08:59:07;;;;;;;3.50;1.75;;;;;;;11.47;27.31;96930.72;5094460;28;20387;-63
2023/03/13 09:01:36;;;;;;;2.85;1.90;;;;;;;11.18;26.90;96952.69;5094538;28;20101;-64
2023/03/13 09:04:06;;;;;;;2.25;1.75;;;;;;;10.94;26.58;96955.22;5094366;28;20076;-64
2023/03/13 09:06:33;;;;;;;2.15;1.70;;;;;;;10.92;26.88;96957.88;5094267;28;20074;-62
2023/03/13 09:09:01;;;;;;;1.88;1.70;;;;;;;10.79;26.38;96964.44;5094142;28;20126;-63
2023/03/13 09:11:28;;;;;;;2.13;1.88;;;;;;;11.02;27.20;96971.53;5094251;28;20048;-63
2023/03/13 09:13:58;;;;;;;1.90;1.80;;;;;;;10.78;26.49;96954.88;5094270;28;20059;-64
2023/03/13 09:16:27;;;;;;;2.08;1.55;;;;;;;10.94;28.98;96950.84;5094213;28;20052;-64
2023/03/13 09:18:56;;;;;;;2.80;1.63;;;;;;;11.23;27.20;96963.88;5094161;28;20497;-65
2023/03/13 09:21:26;;;;;;;2.67;1.92;;;;;;;11.29;25.97;96953.16;5094067;28;20048;-63
2023/03/13 09:23:54;;;;;;;1.95;1.70;;;;;;;11.17;26.59;96954.44;5094084;28;20131;-65
2023/03/13 09:26:23;;;;;;;2.28;2.05;;;;;;;11.08;27.18;96965.25;5093882;28;20040;-63
2023/03/13 09:28:50;;;;;;;7.63;2.08;;;;;;;11.00;26.81;96957.66;5093664;28;20048;-63
2023/03/13 09:31:20;;;;;;;2.45;2.00;;;;;;;10.97;29.74;96958.59;5093907;28;20489;-63
2023/03/13 09:33:48;;;;;;;2.38;1.90;;;;;;;11.28;27.13;96953.22;5093704;28;20530;-64
2023/03/13 09:36:16;;;;;;;3.03;2.25;;;;;;;11.79;27.66;96956.69;5093691;28;20044;-63
2023/03/13 09:38:46;;;;;;;4.88;2.20;;;;;;;11.58;27.37;96948.69;5093697;28;20048;-62
2023/03/13 09:41:23;;;;;;;2.58;2.05;;;;;;;11.66;26.47;96953.66;5093623;28;20048;-64
2023/03/13 09:43:56;;;;;;;3.00;1.98;;;;;;;11.80;25.86;96949.69;5093644;28;20113;-64
2023/03/13 09:46:30;;;;;;;2.55;1.73;;;;;;;11.91;27.04;96950.13;5093545;28;20154;-63
2023/03/13 09:49:00;;;;;;;3.10;1.50;;;;;;;12.13;25.11;96949.34;5093294;28;20146;-63
2023/03/13 09:51:29;;;;;;;7.18;1.67;;;;;;;11.79;23.17;96940.97;5093564;28;20051;-64
2023/03/13 09:54:03;;;;;;;2.13;1.50;;;;;;;11.69;26.36;96922.09;5093701;28;20063;-62
2023/03/13 09:56:34;;;;;;;3.40;1.35;;;;;;;11.87;25.62;96940.69;5093473;28;20500;-63
2023/03/13 09:59:05;;;;;;;;;;;;;;;12.05;23.99;96935.66;5093924;28;20130;-64
2023/03/13 10:01:35;;;;;;;1.65;1.45;;;;;;;11.84;23.65;96933.81;5093352;28;19920;-62
2023/03/13 10:04:09;;;;;;;1.65;1.55;;;;;;;11.47;23.84;96924.66;5093466;28;20044;-65
2023/03/13 10:06:43;;;;;;;2.50;2.10;;;;;;;11.37;24.62;96924.97;5093181;28;20059;-64
2023/03/13 10:09:20;;;;;;;1.75;1.50;;;;;;;11.30;24.60;96918.22;5093356;28;20092;-63
2023/03/13 10:11:57;;;;;;;2.10;1.80;;;;;;;11.31;24.74;96919.94;5093270;28;20097;-64
2023/03/13 10:14:30;;;;;;;2.55;2.15;;;;;;;11.18;25.75;96923.88;5093210;28;20101;-65
2023/03/13 10:17:06;;;;;;;5.55;1.95;;;;;;;11.17;25.77;96919.56;5093136;28;20047;-64
2023/03/13 10:19:36;;;;;;;2.85;1.70;;;;;;;11.27;26.08;96915.72;5093296;28;20044;-64
2023/03/13 10:22:13;;;;;;;2.13;1.90;;;;;;;11.28;24.67;96921.78;5093276;28;20052;-64
2023/03/13 10:24:46;;;;;;;2.13;1.92;;;;;;;10.91;24.88;96929.16;5093158;28;20123;-63
2023/03/13 10:27:15;;;;;;;5.95;1.80;;;;;;;10.65;24.81;96926.47;5093038;28;20127;-65
2023/03/13 10:29:43;;;;;;;1.73;1.63;;;;;;;10.74;25.72;96918.34;5093009;28;20052;-63
2023/03/13 10:32:13;;;;;;;3.65;1.98;;;;;;;11.07;28.50;96917.25;5093071;28;20126;-63
2023/03/13 10:34:51;;;;;;;2.92;2.00;;;;;;;11.53;26.89;96915.72;5093155;28;20098;-62
2023/03/13 10:37:24;;;;;;;2.90;1.67;;;;;;;11.50;25.57;96904.41;5093114;28;20044;-65
2023/03/13 10:39:53;;;;;;;2.58;1.90;;;;;;;11.44;27.84;96904.63;5092989;28;20090;-66
2023/03/13 10:42:27;;;;;;;3.95;2.00;;;;;;;11.47;28.07;96909.75;5092977;28;20127;-62
2023/03/13 10:44:59;;;;;;;2.10;2.00;;;;;;;11.67;27.11;96905.56;5092938;28;20044;-64
2023/03/13 10:47:26;;;;;;;2.97;1.80;;;;;;;11.85;27.31;96908.41;5092874;28;20071;-65
2023/03/13 10:49:58;;;;;;;3.25;1.70;;;;;;;11.95;27.80;96904.53;5092532;28;20044;-65
2023/03/13 10:52:32;;;;;;;1.92;1.75;;;;;;;12.16;25.55;96894.16;5092946;28;20044;-63
2023/03/13 10:55:04;;;;;;;2.90;1.80;;;;;;;12.30;24.99;96891.03;5092806;28;20044;-63
2023/03/13 10:57:34;;;;;;;2.22;1.95;;;;;;;12.32;26.77;96890.97;5092862;28;20142;-65
2023/03/13 11:00:10;;;;;;;1.88;1.77;;;;;;;12.46;26.55;96883.38;5092796;28;20485;-64
2023/03/13 11:02:39;;;;;;;3.63;1.92;;;;;;;12.67;25.80;96874.72;5093572;28;20065;-66
2023/03/13 11:05:30;;;;;;;2.15;1.95;;;;;;;12.70;25.34;96875.44;5096647;28;20074;-63
2023/03/13 11:07:58;;;;;;;4.80;1.88;;;;;;;12.67;27.71;96874.72;5096561;28;20119;-62
2023/03/13 11:10:28;;;;;;;3.05;1.88;;;;;;;12.59;27.05;96867.16;5096429;28;20056;-62
2023/03/13 11:12:57;;;;;;;2.63;2.13;;;;;;;12.40;28.73;96867.88;5096497;28;20055;-65
2023/03/13 11:15:31;;;;;;;2.22;1.67;;;;;;;12.60;26.78;96858.34;5096589;28;20135;-64
2023/03/13 11:18:03;;;;;;;2.40;2.08;;;;;;;12.55;25.65;96855.91;5096439;28;20478;-65
2023/03/13 11:20:34;;;;;;;3.10;1.88;;;;;;;12.38;26.61;96851.38;5096462;28;20469;-65
2023/03/13 11:23:13;;;;;;;2.17;1.90;;;;;;;12.40;26.84;96853.94;5096496;28;20082;-63
2023/03/13 11:25:50;;;;;;;5.32;2.00;;;;;;;12.53;27.08;96847.28;5096528;28;20210;-65
2023/03/13 11:28:28;;;;;;;3.92;1.85;;;;;;;12.21;28.03;96850.28;5096263;28;20054;-63
2023/03/13 11:31:13;;;;;;;3.72;2.30;;;;;;;12.22;26.50;96843.28;5096012;28;20125;-63
2023/03/13 11:33:52;;;;;;;4.00;2.00;;;;;;;12.29;28.34;96851.75;5096146;28;20044;-63
2023/03/13 11:36:27;;;;;;;4.20;2.13;;;;;;;12.42;26.74;96846.84;5096113;28;20052;-65
2023/03/13 11:39:02;;;;;;;3.30;2.08;;;;;;;12.37;26.87;96845.25;5096054;28;20055;-65
2023/03/13 11:41:49;;;;;;;2.80;2.00;;;;;;;12.56;26.31;96834.03;5095974;28;20101;-65
2023/03/13 11:44:30;;;;;;;2.60;1.75;;;;;;;12.45;26.90;96829.22;5095824;28;20552;-63